createdAt,value
2023-02-25T00:01:36.050Z,4.73
2023-02-25T00:04:04.052Z,4.74
2023-02-25T00:06:31.559Z,4.72
2023-02-25T00:08:58.800Z,4.88
2023-02-25T00:11:26.628Z,4.84
2023-02-25T00:13:54.202Z,4.74
2023-02-25T00:16:23.824Z,4.90
2023-02-25T00:18:56.398Z,4.98
2023-02-25T00:21:25.372Z,4.96
2023-02-25T00:23:53.753Z,4.99
2023-02-25T00:26:23.088Z,4.93
2023-02-25T00:28:50.827Z,4.91
2023-02-25T00:31:24.590Z,4.84
2023-02-25T00:33:53.363Z,4.92
2023-02-25T00:36:23.930Z,4.90
2023-02-25T00:38:54.334Z,4.74
2023-02-25T00:41:28.253Z,4.78
2023-02-25T00:44:02.214Z,4.82
2023-02-25T00:46:31.031Z,4.91
2023-02-25T00:48:59.113Z,4.92
2023-02-25T00:51:30.061Z,5.06
2023-02-25T00:53:57.826Z,5.07
2023-02-25T00:56:26.149Z,4.96
2023-02-25T00:58:53.950Z,4.96
2023-02-25T01:01:23.269Z,4.75
2023-02-25T01:03:52.852Z,4.97
2023-02-25T01:06:20.854Z,4.90
2023-02-25T01:08:48.854Z,4.87
2023-02-25T01:11:29.572Z,4.72
2023-02-25T01:14:00.346Z,4.86
2023-02-25T01:16:30.124Z,4.76
2023-02-25T01:19:00.837Z,4.77
2023-02-25T01:21:37.864Z,4.59
2023-02-25T01:24:12.486Z,4.71
2023-02-25T01:26:44.630Z,4.66
2023-02-25T01:29:19.063Z,4.59
2023-02-25T01:31:46.932Z,4.63
2023-02-25T01:34:16.911Z,4.66
2023-02-25T01:36:45.344Z,4.77
2023-02-25T01:39:14.879Z,4.71
2023-02-25T01:41:42.599Z,4.65
2023-02-25T01:44:37.980Z,4.61
2023-02-25T01:47:05.574Z,4.47
2023-02-25T01:49:37.894Z,4.46
2023-02-25T01:52:13.142Z,4.71
2023-02-25T01:54:41.984Z,4.59
2023-02-25T01:57:12.252Z,4.35
2023-02-25T01:59:41.714Z,4.58
2023-02-25T02:02:10.177Z,4.53
2023-02-25T02:04:38.603Z,4.73
2023-02-25T02:07:07.187Z,4.65
2023-02-25T02:09:34.936Z,4.51
2023-02-25T02:12:05.782Z,4.53
2023-02-25T02:14:42.130Z,4.36
2023-02-25T02:17:21.885Z,4.47
2023-02-25T02:19:52.037Z,4.51
2023-02-25T02:22:41.259Z,4.28
2023-02-25T02:25:44.471Z,4.39
2023-02-25T02:28:30.724Z,4.38
2023-02-25T02:31:19.766Z,4.51
2023-02-25T02:33:53.572Z,4.31
2023-02-25T02:36:21.197Z,4.42
2023-02-25T02:39:07.148Z,4.07
2023-02-25T02:41:46.369Z,4.49
2023-02-25T02:44:16.834Z,4.54
2023-02-25T02:47:01.176Z,4.47
2023-02-25T02:49:43.525Z,4.68
2023-02-25T02:52:16.921Z,4.70
2023-02-25T02:54:49.714Z,4.80
2023-02-25T02:57:19.575Z,4.68
2023-02-25T02:59:56.238Z,4.62
2023-02-25T03:02:33.708Z,4.39
2023-02-25T03:05:06.688Z,4.53
2023-02-25T03:07:40.311Z,4.64
2023-02-25T03:10:14.228Z,4.77
2023-02-25T03:12:41.581Z,4.56
2023-02-25T03:15:10.050Z,4.66
2023-02-25T03:17:54.614Z,4.78
2023-02-25T03:20:40.558Z,4.83
2023-02-25T03:23:15.627Z,4.85
2023-02-25T03:25:50.563Z,4.87
2023-02-25T03:28:30.627Z,4.87
2023-02-25T03:31:07.451Z,5.01
2023-02-25T03:33:48.125Z,5.01
2023-02-25T03:36:41.798Z,4.86
2023-02-25T03:39:28.576Z,4.78
2023-02-25T03:42:01.866Z,4.71
2023-02-25T03:44:34.966Z,4.46
2023-02-25T03:47:04.632Z,4.62
2023-02-25T03:49:52.271Z,4.77
2023-02-25T03:52:23.813Z,4.87
2023-02-25T03:54:57.667Z,4.76
2023-02-25T03:57:35.126Z,4.63
2023-02-25T04:00:10.148Z,4.83
2023-02-25T04:02:40.784Z,4.97
2023-02-25T04:05:10.378Z,4.93
2023-02-25T04:07:39.073Z,4.91
2023-02-25T04:10:08.851Z,4.91
2023-02-25T04:12:36.658Z,4.87
2023-02-25T04:15:06.116Z,4.72
2023-02-25T04:17:35.064Z,4.50
2023-02-25T04:20:02.282Z,4.48
2023-02-25T04:22:29.785Z,4.39
2023-02-25T04:24:56.973Z,4.41
2023-02-25T04:27:24.589Z,4.42
2023-02-25T04:29:51.871Z,4.51
2023-02-25T04:32:19.473Z,4.32
2023-02-25T04:34:46.776Z,4.42
2023-02-25T04:37:14.417Z,4.38
2023-02-25T04:39:41.858Z,4.35
2023-02-25T04:42:09.703Z,4.26
2023-02-25T04:44:36.990Z,3.68
2023-02-25T04:47:04.594Z,4.08
2023-02-25T04:49:31.866Z,3.92
2023-02-25T04:51:59.962Z,3.75
2023-02-25T04:54:27.219Z,3.94
2023-02-25T04:56:56.448Z,4.01
2023-02-25T04:59:26.740Z,4.08
2023-02-25T05:01:54.385Z,4.16
2023-02-25T05:04:21.655Z,4.04
2023-02-25T05:06:49.251Z,4.08
2023-02-25T05:09:16.482Z,4.11
2023-02-25T05:11:44.044Z,4.18
2023-02-25T05:14:11.233Z,4.13
2023-02-25T05:16:38.907Z,4.17
2023-02-25T05:19:06.200Z,4.18
2023-02-25T05:21:33.761Z,4.24
2023-02-25T05:24:01.096Z,4.22
2023-02-25T05:26:28.696Z,4.26
2023-02-25T05:28:58.790Z,4.33
2023-02-25T05:31:26.855Z,4.07
2023-02-25T05:33:54.378Z,4.10
2023-02-25T05:36:23.580Z,4.07
2023-02-25T05:38:58.946Z,4.11
2023-02-25T05:41:26.742Z,4.12
2023-02-25T05:43:53.942Z,4.20
2023-02-25T05:46:22.623Z,4.18
2023-02-25T05:48:50.218Z,4.28
2023-02-25T05:51:20.276Z,4.30
2023-02-25T05:53:49.183Z,4.19
2023-02-25T05:56:20.462Z,4.17
2023-02-25T05:58:48.603Z,4.11
2023-02-25T06:01:19.319Z,4.03
2023-02-25T06:03:48.454Z,4.05
2023-02-25T06:06:23.188Z,4.07
2023-02-25T06:08:51.809Z,3.87
2023-02-25T06:11:22.472Z,4.06
2023-02-25T06:13:53.766Z,4.10
2023-02-25T06:16:22.758Z,4.16
2023-02-25T06:18:51.568Z,4.13
2023-02-25T06:21:19.871Z,4.09
2023-02-25T06:23:50.406Z,4.21
2023-02-25T06:26:18.802Z,4.26
2023-02-25T06:28:46.050Z,4.28
2023-02-25T06:31:16.054Z,4.39
2023-02-25T06:33:43.721Z,4.49
2023-02-25T06:36:11.846Z,4.56
2023-02-25T06:38:40.208Z,4.65
2023-02-25T06:41:10.149Z,4.73
2023-02-25T06:43:38.458Z,4.78
2023-02-25T06:46:08.354Z,4.84
2023-02-25T06:48:35.802Z,4.88
2023-02-25T06:51:04.862Z,4.83
2023-02-25T06:53:32.224Z,4.78
2023-02-25T06:55:59.725Z,4.78
2023-02-25T06:58:27.022Z,4.76
2023-02-25T07:00:54.642Z,4.91
2023-02-25T07:03:22.047Z,4.94
2023-02-25T07:05:49.683Z,4.97
2023-02-25T07:08:16.990Z,5.01
2023-02-25T07:10:44.584Z,5.09
2023-02-25T07:13:12.142Z,5.11
2023-02-25T07:15:39.851Z,5.41
2023-02-25T07:18:07.171Z,5.56
2023-02-25T07:20:34.800Z,5.49
2023-02-25T07:23:06.371Z,5.49
2023-02-25T07:25:34.075Z,5.74
2023-02-25T07:28:01.339Z,5.44
2023-02-25T07:30:29.226Z,5.62
2023-02-25T07:32:57.003Z,5.71
2023-02-25T07:35:24.870Z,5.65
2023-02-25T07:37:52.100Z,5.68
2023-02-25T07:40:20.151Z,5.75
2023-02-25T07:42:47.389Z,5.94
2023-02-25T07:45:15.063Z,6.03
2023-02-25T07:47:42.412Z,6.09
2023-02-25T07:50:12.801Z,6.04
2023-02-25T07:52:40.488Z,6.16
2023-02-25T07:55:08.298Z,5.99
2023-02-25T07:57:35.874Z,5.95
2023-02-25T08:00:07.997Z,5.97
2023-02-25T08:02:40.012Z,5.99
2023-02-25T08:05:09.287Z,5.85
2023-02-25T08:07:36.621Z,5.91
2023-02-25T08:10:05.437Z,5.91
2023-02-25T08:12:32.667Z,5.85
2023-02-25T08:15:02.168Z,5.80
2023-02-25T08:17:33.649Z,5.86
2023-02-25T08:20:01.156Z,5.81
2023-02-25T08:22:28.634Z,5.93
2023-02-25T08:24:56.151Z,5.95
2023-02-25T08:27:23.500Z,6.24
2023-02-25T08:29:51.062Z,6.39
2023-02-25T08:32:19.002Z,6.25
2023-02-25T08:34:48.730Z,6.33
2023-02-25T08:37:16.118Z,6.57
2023-02-25T08:39:43.671Z,6.36
2023-02-25T08:42:16.495Z,6.17
2023-02-25T08:44:44.727Z,6.19
2023-02-25T08:47:12.187Z,6.19
2023-02-25T08:49:40.282Z,6.08
2023-02-25T08:52:11.988Z,6.19
2023-02-25T08:54:39.744Z,6.16
2023-02-25T08:57:07.005Z,6.00
2023-02-25T08:59:36.014Z,5.88
2023-02-25T09:02:06.367Z,6.10
2023-02-25T09:04:34.634Z,5.67
2023-02-25T09:07:02.582Z,6.01
2023-02-25T09:09:30.199Z,6.06
2023-02-25T09:11:57.565Z,6.12
2023-02-25T09:14:25.109Z,6.20
2023-02-25T09:16:52.508Z,5.92
2023-02-25T09:19:20.857Z,6.15
2023-02-25T09:21:48.430Z,6.30
2023-02-25T09:24:17.946Z,6.50
2023-02-25T09:26:46.064Z,6.71
2023-02-25T09:29:13.895Z,6.87
2023-02-25T09:31:41.363Z,6.73
2023-02-25T09:34:11.185Z,6.76
2023-02-25T09:36:38.434Z,6.91
2023-02-25T09:39:10.526Z,6.87
2023-02-25T09:41:44.313Z,6.80
2023-02-25T09:44:14.391Z,6.97
2023-02-25T09:46:49.729Z,7.10
2023-02-25T09:49:29.337Z,7.12
2023-02-25T09:52:13.555Z,7.10
2023-02-25T09:54:45.765Z,7.01
2023-02-25T09:57:19.112Z,7.15
2023-02-25T09:59:48.781Z,6.57
2023-02-25T10:02:28.279Z,6.22
2023-02-25T10:05:11.124Z,5.80
2023-02-25T10:07:53.378Z,5.53
2023-02-25T10:10:30.766Z,5.59
2023-02-25T10:13:18.201Z,5.25
2023-02-25T10:16:21.321Z,5.29
2023-02-25T10:18:55.028Z,5.37
2023-02-25T10:21:41.920Z,5.51
2023-02-25T10:24:38.620Z,5.62
2023-02-25T10:27:31.226Z,5.46
2023-02-25T10:30:07.228Z,4.94
2023-02-25T10:32:37.315Z,5.23
2023-02-25T10:35:23.938Z,5.37
2023-02-25T10:37:52.310Z,5.76
2023-02-25T10:40:23.059Z,5.60
2023-02-25T10:42:54.573Z,5.98
2023-02-25T10:45:30.955Z,5.81
2023-02-25T10:48:12.429Z,6.11
2023-02-25T10:50:45.980Z,5.63
2023-02-25T10:53:17.573Z,5.27
2023-02-25T10:55:51.408Z,5.15
2023-02-25T10:58:26.084Z,5.25
2023-02-25T11:00:58.887Z,5.11
2023-02-25T11:03:30.596Z,5.15
2023-02-25T11:06:24.042Z,5.69
2023-02-25T11:08:54.828Z,5.77
2023-02-25T11:11:31.191Z,5.49
2023-02-25T11:14:00.228Z,5.43
2023-02-25T11:16:29.610Z,5.34
2023-02-25T11:19:03.128Z,5.18
2023-02-25T11:21:37.083Z,5.46
2023-02-25T11:24:13.683Z,5.74
2023-02-25T11:26:45.179Z,5.65
2023-02-25T11:29:27.682Z,5.79
2023-02-25T11:32:08.088Z,6.07
2023-02-25T11:34:46.969Z,5.84
2023-02-25T11:37:37.810Z,5.87
2023-02-25T11:40:29.318Z,6.11
2023-02-25T11:43:05.397Z,5.58
2023-02-25T11:45:38.986Z,5.47
2023-02-25T11:48:17.850Z,5.16
2023-02-25T11:50:55.108Z,5.24
2023-02-25T11:53:31.208Z,4.91
2023-02-25T11:56:24.980Z,4.69
2023-02-25T11:59:13.489Z,4.76
2023-02-25T12:01:55.767Z,4.72
2023-02-25T12:05:00.612Z,4.64
2023-02-25T12:07:31.160Z,4.27
2023-02-25T12:10:37.509Z,4.45
2023-02-25T12:13:42.849Z,4.41
2023-02-25T12:17:21.200Z,4.50
2023-02-25T12:19:57.789Z,4.80
2023-02-25T12:22:46.939Z,4.68
2023-02-25T12:25:56.689Z,4.51
2023-02-25T12:28:49.737Z,4.70
2023-02-25T12:31:20.620Z,4.48
2023-02-25T12:34:09.660Z,4.09
2023-02-25T12:36:55.887Z,4.72
2023-02-25T12:39:32.474Z,4.26
2023-02-25T12:42:18.866Z,4.10
2023-02-25T12:45:20.156Z,3.93
2023-02-25T12:48:35.802Z,3.86
2023-02-25T12:51:22.157Z,4.00
2023-02-25T12:54:20.049Z,4.05
2023-02-25T12:57:11.806Z,4.16
2023-02-25T13:00:33.800Z,4.06
2023-02-25T13:03:15.613Z,4.06
2023-02-25T13:06:01.752Z,4.21
2023-02-25T13:08:47.085Z,3.95
2023-02-25T13:12:12.837Z,3.62
2023-02-25T13:14:46.709Z,3.58
2023-02-25T13:17:26.543Z,4.17
2023-02-25T13:20:06.012Z,3.71
2023-02-25T13:22:53.164Z,3.68
2023-02-25T13:25:25.603Z,3.90
2023-02-25T13:28:25.658Z,3.88
2023-02-25T13:31:18.326Z,3.87
2023-02-25T13:34:04.323Z,3.80
2023-02-25T13:36:46.940Z,4.08
2023-02-25T13:39:44.173Z,3.72
2023-02-25T13:42:27.303Z,3.57
2023-02-25T13:45:23.121Z,3.76
2023-02-25T13:48:02.766Z,3.55
2023-02-25T13:50:41.984Z,3.43
2023-02-25T13:53:12.441Z,3.63
2023-02-25T13:56:07.372Z,3.62
2023-02-25T13:58:45.202Z,3.86
2023-02-25T14:01:49.887Z,3.87
2023-02-25T14:04:35.738Z,3.56
2023-02-25T14:07:06.067Z,3.04
2023-02-25T14:09:33.277Z,3.00
2023-02-25T14:12:23.226Z,3.04
2023-02-25T14:15:27.658Z,3.13
2023-02-25T14:18:17.276Z,3.29
2023-02-25T14:21:00.113Z,3.14
2023-02-25T14:23:52.219Z,3.15
2023-02-25T14:26:37.992Z,3.20
2023-02-25T14:29:27.999Z,3.06
2023-02-25T14:32:07.551Z,2.97
2023-02-25T14:34:44.793Z,3.05
2023-02-25T14:37:29.691Z,2.71
2023-02-25T14:40:13.042Z,2.71
2023-02-25T14:43:04.201Z,2.51
2023-02-25T14:45:37.717Z,2.56
2023-02-25T14:48:14.570Z,2.74
2023-02-25T14:51:09.768Z,2.65
2023-02-25T14:54:09.031Z,2.42
2023-02-25T14:57:05.678Z,2.45
2023-02-25T14:59:35.881Z,2.62
2023-02-25T15:02:30.625Z,2.73
2023-02-25T15:05:20.772Z,2.61
2023-02-25T15:08:09.513Z,2.33
2023-02-25T15:10:48.736Z,1.77
2023-02-25T15:13:36.594Z,2.21
2023-02-25T15:16:35.645Z,1.92
2023-02-25T15:19:12.186Z,2.07
2023-02-25T15:21:49.182Z,1.94
2023-02-25T15:24:36.964Z,1.73
2023-02-25T15:27:35.893Z,2.29
2023-02-25T15:30:09.530Z,2.28
2023-02-25T15:33:15.820Z,2.07
2023-02-25T15:35:43.612Z,2.12
2023-02-25T15:38:44.421Z,2.13
2023-02-25T15:41:27.337Z,2.28
2023-02-25T15:43:54.737Z,2.06
2023-02-25T15:46:34.750Z,2.50
2023-02-25T15:49:07.942Z,2.67
2023-02-25T15:51:43.688Z,2.33
2023-02-25T15:54:29.610Z,1.98
2023-02-25T15:57:03.285Z,1.73
2023-02-25T15:59:46.884Z,1.90
2023-02-25T16:02:26.676Z,1.92
2023-02-25T16:04:57.716Z,2.03
2023-02-25T16:07:33.022Z,2.15
2023-02-25T16:10:25.438Z,2.29
2023-02-25T16:12:57.730Z,2.46
2023-02-25T16:15:35.585Z,2.30
2023-02-25T16:18:33.338Z,2.24
2023-02-25T16:21:06.241Z,2.22
2023-02-25T16:23:41.085Z,2.10
2023-02-25T16:26:19.997Z,2.10
2023-02-25T16:29:40.458Z,2.39
2023-02-25T16:32:20.223Z,2.42
2023-02-25T16:35:20.803Z,2.22
2023-02-25T16:38:17.363Z,2.24
2023-02-25T16:40:45.909Z,2.26
2023-02-25T16:43:21.931Z,2.07
2023-02-25T16:45:58.852Z,2.21
2023-02-25T16:48:34.369Z,2.10
2023-02-25T16:51:36.175Z,2.31
2023-02-25T16:54:29.948Z,2.24
2023-02-25T16:57:04.312Z,2.53
2023-02-25T16:59:33.488Z,2.36
2023-02-25T17:02:02.905Z,2.33
2023-02-25T17:04:37.992Z,2.37
2023-02-25T17:07:19.981Z,2.43
2023-02-25T17:09:50.536Z,2.55
2023-02-25T17:12:28.626Z,2.57
2023-02-25T17:14:57.942Z,2.65
2023-02-25T17:17:33.125Z,2.62
2023-02-25T17:20:05.352Z,2.62
2023-02-25T17:22:35.338Z,2.33
2023-02-25T17:25:04.458Z,2.56
2023-02-25T17:27:32.591Z,2.29
2023-02-25T17:29:59.966Z,2.32
2023-02-25T17:32:30.282Z,2.26
2023-02-25T17:35:02.050Z,2.34
2023-02-25T17:37:30.622Z,2.39
2023-02-25T17:39:59.586Z,2.39
2023-02-25T17:42:41.392Z,2.26
2023-02-25T17:45:46.191Z,2.12
2023-02-25T17:48:20.798Z,2.04
2023-02-25T17:50:59.160Z,2.25
2023-02-25T17:53:38.992Z,2.16
2023-02-25T17:56:23.182Z,2.32
2023-02-25T17:58:53.224Z,2.40
2023-02-25T18:01:27.129Z,2.33
2023-02-25T18:03:55.689Z,2.27
2023-02-25T18:06:39.323Z,2.16
2023-02-25T18:09:28.172Z,2.02
2023-02-25T18:11:58.102Z,1.85
2023-02-25T18:14:38.761Z,2.01
2023-02-25T18:17:37.949Z,2.08
2023-02-25T18:20:08.704Z,1.92
2023-02-25T18:22:49.612Z,2.14
2023-02-25T18:25:44.870Z,2.15
2023-02-25T18:28:17.659Z,2.24
2023-02-25T18:30:45.499Z,2.51
2023-02-25T18:33:13.347Z,2.15
2023-02-25T18:35:43.322Z,2.29
2023-02-25T18:38:37.795Z,2.25
2023-02-25T18:41:08.548Z,2.10
2023-02-25T18:43:41.843Z,2.45
2023-02-25T18:46:10.087Z,2.29
2023-02-25T18:48:38.002Z,2.35
2023-02-25T18:51:12.410Z,2.37
2023-02-25T18:53:40.294Z,2.42
2023-02-25T18:56:08.842Z,2.50
2023-02-25T18:58:36.113Z,2.27
2023-02-25T19:01:03.985Z,2.44
2023-02-25T19:03:39.242Z,2.29
2023-02-25T19:06:07.176Z,2.21
2023-02-25T19:08:34.426Z,2.32
2023-02-25T19:11:01.948Z,2.16
2023-02-25T19:13:36.892Z,2.39
2023-02-25T19:16:05.667Z,2.42
2023-02-25T19:18:33.396Z,2.23
2023-02-25T19:21:01.019Z,2.61
2023-02-25T19:23:29.187Z,2.59
2023-02-25T19:26:00.084Z,2.68
2023-02-25T19:28:27.927Z,2.61
2023-02-25T19:30:55.825Z,2.62
2023-02-25T19:33:23.104Z,2.48
2023-02-25T19:35:50.605Z,2.67
2023-02-25T19:38:19.520Z,2.45
2023-02-25T19:40:48.166Z,2.55
2023-02-25T19:43:16.927Z,2.70
2023-02-25T19:45:44.965Z,2.69
2023-02-25T19:48:12.449Z,2.77
2023-02-25T19:50:41.589Z,2.73
2023-02-25T19:53:09.144Z,2.86
2023-02-25T19:55:37.608Z,2.51
2023-02-25T19:58:05.794Z,2.60
2023-02-25T20:00:33.535Z,2.43
2023-02-25T20:03:00.892Z,2.43
2023-02-25T20:05:28.571Z,2.56
2023-02-25T20:07:56.154Z,2.77
2023-02-25T20:10:23.859Z,2.55
2023-02-25T20:12:51.202Z,2.46
2023-02-25T20:15:18.816Z,2.21
2023-02-25T20:17:46.676Z,2.24
2023-02-25T20:20:16.244Z,2.28
2023-02-25T20:22:43.910Z,2.51
2023-02-25T20:25:13.482Z,2.39
2023-02-25T20:27:43.596Z,2.11
2023-02-25T20:30:14.570Z,2.13
2023-02-25T20:32:44.227Z,2.31
2023-02-25T20:35:21.567Z,2.30
2023-02-25T20:38:24.244Z,2.19
2023-02-25T20:40:51.950Z,2.04
2023-02-25T20:43:19.359Z,2.28
2023-02-25T20:45:47.513Z,2.15
2023-02-25T20:48:26.652Z,2.41
2023-02-25T20:50:54.973Z,2.26
2023-02-25T20:53:22.725Z,1.89
2023-02-25T20:55:50.812Z,2.27
2023-02-25T20:58:18.314Z,2.22
2023-02-25T21:00:45.903Z,2.47
2023-02-25T21:03:13.312Z,2.39
2023-02-25T21:05:40.927Z,2.20
2023-02-25T21:08:08.415Z,2.00
2023-02-25T21:10:36.032Z,1.63
2023-02-25T21:13:03.345Z,1.92
2023-02-25T21:15:30.982Z,1.97
2023-02-25T21:17:58.295Z,1.87
2023-02-25T21:20:25.844Z,1.65
2023-02-25T21:22:53.077Z,1.85
2023-02-25T21:25:20.696Z,2.11
2023-02-25T21:27:48.086Z,2.28
2023-02-25T21:30:16.373Z,2.19
2023-02-25T21:32:43.754Z,2.04
2023-02-25T21:35:11.435Z,2.07
2023-02-25T21:37:38.831Z,1.91
2023-02-25T21:40:07.411Z,1.82
2023-02-25T21:42:34.778Z,1.92
2023-02-25T21:45:02.347Z,2.25
2023-02-25T21:47:29.673Z,2.17
2023-02-25T21:49:57.186Z,1.96
2023-02-25T21:52:24.902Z,2.17
2023-02-25T21:54:52.892Z,2.09
2023-02-25T21:57:20.149Z,1.80
2023-02-25T21:59:47.804Z,1.95
2023-02-25T22:02:15.085Z,1.76
2023-02-25T22:04:42.862Z,1.69
2023-02-25T22:07:10.181Z,1.83
2023-02-25T22:09:37.728Z,1.88
2023-02-25T22:12:05.548Z,1.85
2023-02-25T22:14:33.078Z,1.76
2023-02-25T22:17:01.979Z,1.78
2023-02-25T22:19:29.815Z,1.70
2023-02-25T22:21:57.051Z,1.88
2023-02-25T22:24:24.595Z,1.78
2023-02-25T22:26:52.208Z,1.86
2023-02-25T22:29:19.802Z,1.80
2023-02-25T22:31:47.196Z,1.92
2023-02-25T22:34:15.003Z,1.97
2023-02-25T22:36:42.255Z,2.11
2023-02-25T22:39:10.376Z,1.96
2023-02-25T22:41:37.884Z,2.25
2023-02-25T22:44:06.066Z,2.38
2023-02-25T22:46:38.977Z,2.43
2023-02-25T22:49:08.574Z,2.25
2023-02-25T22:51:42.212Z,2.18
2023-02-25T22:54:12.395Z,2.12
2023-02-25T22:56:40.278Z,2.17
2023-02-25T22:59:07.931Z,2.11
2023-02-25T23:01:35.668Z,2.15
2023-02-25T23:04:03.374Z,2.24
2023-02-25T23:06:42.740Z,2.47
2023-02-25T23:09:11.055Z,2.40
2023-02-25T23:11:40.754Z,2.28
2023-02-25T23:14:08.334Z,2.16
2023-02-25T23:16:41.733Z,2.29
2023-02-25T23:19:14.032Z,2.09
2023-02-25T23:21:41.281Z,2.04
2023-02-25T23:24:13.704Z,2.04
2023-02-25T23:26:42.487Z,2.00
2023-02-25T23:29:11.612Z,2.02
2023-02-25T23:31:43.786Z,2.12
2023-02-25T23:34:21.698Z,2.18
2023-02-25T23:36:49.514Z,2.23
2023-02-25T23:39:17.599Z,2.26
2023-02-25T23:41:45.027Z,2.09
2023-02-25T23:44:13.685Z,2.16
2023-02-25T23:46:45.205Z,1.97
2023-02-25T23:49:13.994Z,2.26
2023-02-25T23:51:47.495Z,1.81
2023-02-25T23:54:17.269Z,1.96
2023-02-25T23:56:45.532Z,2.08
2023-02-25T23:59:13.673Z,1.90
